Time;durP1;ratioP1;P1;durP2;ratioP2;P2;SDS_P1;SDS_P2;PMS_P1;PMS_P2;Temp;Humidity;BMP_temperature;BMP_pressure;BME280_temperature;BME280_humidity;BME280_pressure;Samples;Min_cycle;Max_cycle;Signal;HPM_P1;HPM_P2
2022/09/14 00:01:50;;;;;;;20.75;3.65;;;;;;;19.56;63.49;100440.13;5053596;28;20029;-77
2022/09/14 00:04:18;;;;;;;7.05;1.73;;;;;;;19.50;63.62;100435.41;5048825;28;20024;-77
2022/09/14 00:06:46;;;;;;;14.77;2.00;;;;;;;19.58;63.73;100439.94;5055220;28;20150;-79
2022/09/14 00:09:23;;;;;;;9.00;2.08;;;;;;;19.57;63.47;100430.06;5054540;28;20024;-76
2022/09/14 00:11:50;;;;;;;3.10;2.22;;;;;;;19.64;63.34;100425.53;5055869;28;20028;-80
2022/09/14 00:14:16;;;;;;;2.92;1.92;;;;;;;19.73;62.96;100432.59;5055616;28;20077;-81
2022/09/14 00:16:42;;;;;;;7.18;2.70;;;;;;;19.77;62.75;100425.72;5055150;28;20021;-79
2022/09/14 00:19:23;;;;;;;7.90;2.88;;;;;;;19.73;62.82;100424.41;5054557;28;20384;-76
2022/09/14 00:21:52;;;;;;;5.85;2.42;;;;;;;19.76;62.69;100432.22;5054849;28;20029;-84
2022/09/14 00:24:18;;;;;;;9.73;2.30;;;;;;;19.83;62.40;100441.34;5057627;28;20028;-79
2022/09/14 00:26:44;;;;;;;6.72;2.25;;;;;;;19.81;62.25;100432.50;5055133;28;20025;-81
2022/09/14 00:29:10;;;;;;;6.22;2.47;;;;;;;19.87;62.24;100434.47;5055394;28;20025;-83
2022/09/14 00:31:37;;;;;;;4.63;2.33;;;;;;;19.73;62.50;100435.31;5056612;28;20021;-86
2022/09/14 00:34:05;;;;;;;10.10;2.38;;;;;;;19.77;62.70;100442.09;5054823;28;20024;-81
2022/09/14 00:36:32;;;;;;;4.43;3.30;;;;;;;19.86;62.33;100452.75;5048917;28;20021;-81
2022/09/14 00:38:59;;;;;;;6.88;4.38;;;;;;;19.86;61.96;100450.00;5037385;28;20059;-82
2022/09/14 00:41:33;;;;;;;10.80;4.15;;;;;;;19.87;62.29;100448.13;5055866;28;20018;-81
2022/09/14 00:44:04;;;;;;;10.48;5.40;;;;;;;19.89;61.82;100454.25;5050231;28;20021;-80
2022/09/14 00:46:39;;;;;;;6.65;5.63;;;;;;;19.87;61.61;100453.59;5034019;28;20126;-80
2022/09/14 00:49:14;;;;;;;8.15;5.03;;;;;;;19.85;61.43;100439.25;5034910;28;20497;-81
2022/09/14 00:51:51;;;;;;;10.85;5.30;;;;;;;19.85;62.05;100444.72;5039204;28;20021;-80
2022/09/14 00:54:19;;;;;;;11.13;6.13;;;;;;;19.77;62.07;100434.78;5048494;28;20028;-82
2022/09/14 00:56:47;;;;;;;11.48;6.53;;;;;;;19.82;62.19;100450.56;5054616;28;20021;-82
2022/09/14 00:59:16;;;;;;;16.10;10.38;;;;;;;19.81;61.91;100440.69;5054974;28;20054;-82
2022/09/14 01:01:43;;;;;;;17.70;10.30;;;;;;;19.79;62.04;100450.94;5053748;28;20026;-82
2022/09/14 01:04:08;;;;;;;21.48;12.82;;;;;;;19.67;62.42;100434.19;5054835;28;20478;-80
2022/09/14 01:06:55;;;;;;;23.88;16.48;;;;;;;19.80;62.08;100447.19;5053506;28;20023;-81
2022/09/14 01:09:34;;;;;;;30.33;17.65;;;;;;;19.73;62.30;100438.91;5050826;28;20047;-81
2022/09/14 01:11:59;;;;;;;34.20;17.83;;;;;;;19.71;62.28;100453.78;5054479;28;20096;-81
2022/09/14 01:14:51;;;;;;;29.40;19.00;;;;;;;19.67;62.61;100452.44;5055009;28;20076;-81
2022/09/14 01:17:29;;;;;;;30.23;18.40;;;;;;;19.66;62.70;100450.78;5055163;28;20062;-81
2022/09/14 01:20:13;;;;;;;34.45;17.13;;;;;;;19.59;62.82;100452.53;5054998;28;20067;-81
2022/09/14 01:23:12;;;;;;;31.95;15.07;;;;;;;19.53;62.92;100456.88;5054683;28;20541;-81
2022/09/14 01:25:51;;;;;;;27.33;17.95;;;;;;;19.52;62.82;100446.97;5054867;28;20052;-81
2022/09/14 01:28:49;;;;;;;36.72;21.17;;;;;;;19.39;62.14;100430.38;5054753;28;20372;-82
2022/09/14 01:31:24;;;;;;;43.33;21.25;;;;;;;19.57;61.90;100450.00;5047807;28;20119;-82
2022/09/14 01:34:08;;;;;;;45.63;21.30;;;;;;;19.55;61.38;100450.19;5055267;28;20056;-82
2022/09/14 01:36:37;;;;;;;32.30;21.65;;;;;;;19.42;61.78;100435.50;5055669;28;20029;-81
2022/09/14 01:39:03;;;;;;;32.00;21.33;;;;;;;19.31;61.83;100435.91;5042861;28;20034;-82
2022/09/14 01:41:30;;;;;;;35.15;22.00;;;;;;;19.30;61.82;100451.44;5055651;28;20112;-81
2022/09/14 01:44:03;;;;;;;39.67;22.27;;;;;;;19.21;62.08;100452.53;5055030;28;20082;-82
2022/09/14 01:46:32;;;;;;;;;;;;;;;19.20;61.93;100444.56;5055412;28;20477;-82
2022/09/14 01:49:06;;;;;;;34.75;20.27;;;;;;;19.12;61.80;100445.47;5054951;28;19909;-82
2022/09/14 01:51:57;;;;;;;28.65;18.95;;;;;;;19.17;61.22;100445.78;5054971;28;20021;-82
2022/09/14 01:54:34;;;;;;;30.00;19.23;;;;;;;19.10;61.45;100455.72;5054936;28;20028;-83
2022/09/14 01:57:13;;;;;;;24.63;18.02;;;;;;;19.06;61.37;100457.09;5055301;28;20021;-84
2022/09/14 01:59:43;;;;;;;28.58;17.30;;;;;;;18.98;61.68;100452.59;5054461;28;20036;-82
2022/09/14 02:02:29;;;;;;;31.85;17.58;;;;;;;18.96;61.75;100448.34;5054552;28;20040;-82
2022/09/14 02:05:17;;;;;;;36.80;16.77;;;;;;;19.01;61.61;100454.94;5053686;28;20033;-82
2022/09/14 02:07:43;;;;;;;29.90;15.32;;;;;;;18.98;61.75;100451.75;5054148;28;20503;-82
2022/09/14 02:10:11;;;;;;;20.98;15.65;;;;;;;18.95;61.40;100452.97;5053814;28;20016;-81
2022/09/14 02:12:38;;;;;;;42.53;14.85;;;;;;;18.92;61.87;100452.47;5054228;28;20025;-81
2022/09/14 02:15:07;;;;;;;24.88;13.48;;;;;;;18.94;61.73;100455.84;5053903;28;20056;-81
2022/09/14 02:17:33;;;;;;;26.48;15.52;;;;;;;18.93;61.74;100462.31;5052670;28;20043;-82
2022/09/14 02:20:01;;;;;;;35.55;16.30;;;;;;;18.91;61.56;100456.22;5054320;28;20029;-81
2022/09/14 02:22:28;;;;;;;28.25;18.02;;;;;;;18.95;60.94;100463.00;5053556;28;20043;-81
2022/09/14 02:24:54;;;;;;;40.08;20.80;;;;;;;18.97;60.81;100466.38;5053915;28;20025;-81
2022/09/14 02:27:20;;;;;;;33.53;21.85;;;;;;;18.96;60.34;100462.81;5054404;28;20467;-82
2022/09/14 02:29:46;;;;;;;39.90;24.40;;;;;;;18.91;60.90;100461.66;5054648;28;20047;-80
2022/09/14 02:32:34;;;;;;;34.88;24.75;;;;;;;18.84;60.70;100460.69;5054123;28;20020;-81
2022/09/14 02:35:39;;;;;;;44.22;25.50;;;;;;;18.74;60.80;100460.97;5050844;28;20033;-82
2022/09/14 02:38:42;;;;;;;45.15;26.67;;;;;;;18.71;60.99;100461.31;5054217;28;20024;-81
2022/09/14 02:41:21;;;;;;;52.53;23.58;;;;;;;18.65;61.09;100455.75;5053690;28;20021;-81
2022/09/14 02:44:01;;;;;;;40.10;23.42;;;;;;;18.71;60.94;100463.19;5054541;28;20033;-82
2022/09/14 02:46:35;;;;;;;43.05;20.38;;;;;;;18.65;61.05;100459.31;5054248;28;20471;-82
2022/09/14 02:49:11;;;;;;;53.10;21.20;;;;;;;18.64;61.24;100454.03;5053609;28;20045;-81
2022/09/14 02:51:52;;;;;;;54.38;20.90;;;;;;;18.61;61.08;100452.53;5053655;28;20031;-81
2022/09/14 02:54:29;;;;;;;31.92;20.90;;;;;;;18.53;61.21;100451.75;5053725;28;20036;-81
2022/09/14 02:56:59;;;;;;;38.60;22.27;;;;;;;18.43;61.78;100447.34;5054198;28;20021;-82
2022/09/14 02:59:24;;;;;;;46.38;26.42;;;;;;;18.41;61.72;100446.66;5053951;28;20036;-82
2022/09/14 03:01:49;;;;;;;53.60;28.77;;;;;;;18.52;61.60;100450.91;5053389;28;20025;-82
2022/09/14 03:04:15;;;;;;;41.50;26.23;;;;;;;18.47;61.25;100456.84;5053926;28;20073;-81
2022/09/14 03:06:40;;;;;;;43.42;27.27;;;;;;;18.45;61.25;100450.72;5053656;28;20207;-81
2022/09/14 03:09:06;;;;;;;55.17;31.02;;;;;;;18.52;61.03;100450.91;5053078;28;20158;-81
2022/09/14 03:11:31;;;;;;;53.80;31.70;;;;;;;18.40;61.22;100449.56;5053316;28;20451;-81
2022/09/14 03:13:57;;;;;;;39.70;26.13;;;;;;;18.41;60.83;100443.94;5053175;28;20566;-80
2022/09/14 03:16:22;;;;;;;48.38;27.20;;;;;;;18.26;61.18;100445.72;5053931;28;20024;-80
2022/09/14 03:18:47;;;;;;;68.65;26.83;;;;;;;18.11;61.55;100442.06;5053467;28;20028;-82
2022/09/14 03:21:16;;;;;;;46.88;26.77;;;;;;;18.20;61.69;100446.44;5053439;28;20087;-82
2022/09/14 03:23:44;;;;;;;46.40;22.08;;;;;;;18.12;61.43;100426.59;5053424;28;20459;-81
2022/09/14 03:26:18;;;;;;;36.90;21.30;;;;;;;18.24;60.74;100444.22;5052249;28;20363;-81
2022/09/14 03:28:48;;;;;;;33.95;22.30;;;;;;;18.19;61.17;100458.38;5053232;28;20033;-80
2022/09/14 03:31:15;;;;;;;29.33;19.60;;;;;;;18.20;60.93;100456.47;5052075;28;20024;-81
2022/09/14 03:33:40;;;;;;;42.08;22.13;;;;;;;18.21;61.01;100459.03;5053163;28;20035;-81
2022/09/14 03:36:15;;;;;;;44.13;27.65;;;;;;;18.25;60.71;100464.97;5053438;28;20020;-82
2022/09/14 03:38:45;;;;;;;56.95;26.33;;;;;;;18.22;60.65;100465.34;5053836;28;20384;-82
2022/09/14 03:41:12;;;;;;;36.50;22.85;;;;;;;18.22;60.63;100473.50;5046001;28;20056;-81
2022/09/14 03:43:38;;;;;;;49.88;21.73;;;;;;;18.12;60.35;100468.28;5033499;28;20033;-81
2022/09/14 03:46:11;;;;;;;59.08;21.85;;;;;;;18.07;60.62;100473.38;5035396;28;20450;-81
2022/09/14 03:48:37;;;;;;;52.88;24.83;;;;;;;18.03;60.68;100488.38;5036408;28;20352;-81
2022/09/14 03:51:04;;;;;;;44.22;24.95;;;;;;;18.09;60.33;100486.81;5041061;28;20536;-82
2022/09/14 03:53:30;;;;;;;47.08;26.83;;;;;;;18.02;60.48;100481.22;5053279;28;20036;-82
2022/09/14 03:55:56;;;;;;;46.42;24.58;;;;;;;18.09;59.97;100490.41;5053194;28;20068;-81
2022/09/14 03:58:22;;;;;;;49.10;24.25;;;;;;;18.03;60.36;100488.38;5052906;28;20032;-81
2022/09/14 04:00:48;;;;;;;37.67;22.63;;;;;;;18.00;60.21;100479.72;5052672;28;20036;-82
2022/09/14 04:03:14;;;;;;;33.72;18.83;;;;;;;18.11;59.63;100487.50;5053479;28;20032;-84
2022/09/14 04:05:39;;;;;;;30.00;17.58;;;;;;;18.06;59.20;100489.91;5053446;28;20021;-84
2022/09/14 04:08:04;;;;;;;29.75;14.15;;;;;;;18.01;58.89;100487.69;5053979;28;20467;-83
2022/09/14 04:10:30;;;;;;;30.05;14.90;;;;;;;18.08;58.72;100490.56;5053520;28;20021;-83
2022/09/14 04:12:57;;;;;;;29.15;15.27;;;;;;;18.06;58.66;100489.91;5053359;28;20490;-83
2022/09/14 04:15:22;;;;;;;38.33;16.70;;;;;;;18.06;58.60;100493.47;5052979;28;20045;-84
2022/09/14 04:17:48;;;;;;;38.70;17.95;;;;;;;18.04;58.72;100495.50;5053538;28;20036;-83
2022/09/14 04:20:14;;;;;;;32.58;16.60;;;;;;;18.15;58.62;100497.84;5051839;28;20409;-81
2022/09/14 04:22:39;;;;;;;37.42;15.40;;;;;;;18.13;58.43;100499.06;5052991;28;20448;-79
2022/09/14 04:25:05;;;;;;;29.15;16.08;;;;;;;18.07;58.27;100489.72;5052372;28;20035;-82
2022/09/14 04:27:30;;;;;;;43.78;14.55;;;;;;;18.16;57.94;100496.84;5051523;28;20111;-81
2022/09/14 04:29:56;;;;;;;32.55;14.80;;;;;;;18.15;57.85;100494.28;5052574;28;20029;-85
2022/09/14 04:32:21;;;;;;;40.22;13.77;;;;;;;18.07;57.99;100495.16;5053765;28;20025;-81
2022/09/14 04:34:50;;;;;;;20.48;11.93;;;;;;;18.16;57.26;100496.84;5053144;28;20406;-75
2022/09/14 04:37:15;;;;;;;36.65;11.25;;;;;;;18.25;56.76;100503.94;5053150;28;20552;-88
2022/09/14 04:39:41;;;;;;;25.58;10.85;;;;;;;18.17;56.66;100501.25;5053620;28;20024;-84
2022/09/14 04:42:07;;;;;;;25.92;9.95;;;;;;;18.06;56.68;100504.38;5052068;28;20021;-80
2022/09/14 04:44:32;;;;;;;24.58;10.50;;;;;;;18.03;56.82;100507.44;5053325;28;20029;-84
2022/09/14 04:46:57;;;;;;;23.38;9.10;;;;;;;18.01;56.79;100512.19;5054530;28;20112;-82
2022/09/14 04:49:23;;;;;;;41.88;10.45;;;;;;;18.05;56.39;100510.81;5055618;28;20406;-78
2022/09/14 04:51:49;;;;;;;21.45;7.97;;;;;;;18.05;56.12;100491.78;5055562;28;20042;-84
2022/09/14 04:54:16;;;;;;;25.08;7.45;;;;;;;18.20;56.17;100514.50;5054829;28;20053;-80
2022/09/14 04:56:42;;;;;;;27.45;8.20;;;;;;;18.17;55.98;100505.84;5055233;28;20040;-81
2022/09/14 04:59:08;;;;;;;17.80;6.72;;;;;;;18.24;55.77;100506.84;5056535;28;20024;-84
2022/09/14 05:01:36;;;;;;;19.63;7.00;;;;;;;18.28;55.40;100509.03;5056672;28;20040;-82
2022/09/14 05:04:03;;;;;;;11.98;6.80;;;;;;;18.27;55.46;100511.94;5054469;28;20402;-84
2022/09/14 05:06:31;;;;;;;28.58;8.75;;;;;;;18.29;55.30;100510.72;5055399;28;20521;-82
2022/09/14 05:34:29;;;;;;;20.05;6.47;;;;;;;18.89;53.97;100520.97;4911735;29;20180;-79
2022/09/14 05:36:54;;;;;;;36.58;8.40;;;;;;;18.88;53.82;100505.63;4934571;29;20048;-78
2022/09/14 05:39:20;;;;;;;28.17;9.80;;;;;;;18.99;53.91;100518.84;4936817;29;20436;-80
2022/09/14 05:41:48;;;;;;;23.73;7.75;;;;;;;19.06;53.77;100519.81;4936925;29;20027;-80
2022/09/14 05:44:14;;;;;;;22.88;7.85;;;;;;;19.12;53.76;100512.78;4937059;29;20039;-80
2022/09/14 05:46:39;;;;;;;25.20;9.35;;;;;;;19.24;53.62;100527.66;4935270;29;20023;-79
2022/09/14 05:49:05;;;;;;;38.03;9.38;;;;;;;19.33;53.56;100527.41;4935960;29;20050;-80
2022/09/14 05:51:30;;;;;;;26.30;9.10;;;;;;;19.36;53.62;100535.25;4918923;29;20444;-81
2022/09/14 05:53:57;;;;;;;41.13;9.77;;;;;;;19.46;53.23;100527.69;4935609;29;20019;-78
2022/09/14 05:56:25;;;;;;;29.35;8.93;;;;;;;19.60;53.17;100527.91;4934861;29;20039;-80
2022/09/14 05:58:51;;;;;;;23.52;8.80;;;;;;;19.65;53.28;100529.03;4934734;29;20023;-76
2022/09/14 06:01:25;;;;;;;26.88;9.13;;;;;;;19.76;53.19;100527.72;4934753;29;20058;-78
2022/09/14 06:03:55;;;;;;;35.40;10.07;;;;;;;19.78;53.16;100523.81;4935523;29;20110;-80
2022/09/14 06:06:21;;;;;;;29.90;7.50;;;;;;;19.88;53.16;100534.41;4935322;29;20062;-77
2022/09/14 06:08:51;;;;;;;30.63;7.85;;;;;;;20.00;52.76;100530.19;4935966;29;20023;-79
2022/09/14 06:11:19;;;;;;;25.85;7.40;;;;;;;20.09;52.70;100534.53;4935291;29;20055;-78
2022/09/14 06:13:45;;;;;;;25.73;7.10;;;;;;;20.07;52.28;100525.69;4935403;29;20035;-78
2022/09/14 06:16:13;;;;;;;18.20;7.45;;;;;;;20.27;52.13;100537.78;4935794;29;20456;-80
2022/09/14 06:18:40;;;;;;;23.00;6.55;;;;;;;20.31;51.50;100538.22;4902810;29;20032;-78
2022/09/14 06:21:07;;;;;;;18.52;6.60;;;;;;;20.42;51.73;100545.94;4916822;29;20024;-80
2022/09/14 06:23:32;;;;;;;21.70;6.28;;;;;;;20.49;51.18;100555.91;4916880;29;20040;-81
2022/09/14 06:26:00;;;;;;;34.13;8.18;;;;;;;20.61;51.21;100551.66;4916949;29;20111;-79
2022/09/14 06:28:26;;;;;;;26.92;9.52;;;;;;;20.70;50.37;100554.28;4916915;29;20024;-78
2022/09/14 06:30:52;;;;;;;17.58;8.00;;;;;;;20.73;50.25;100553.91;4916332;29;20384;-78
2022/09/14 06:33:18;;;;;;;24.48;9.68;;;;;;;20.83;50.12;100554.44;4916602;29;20559;-78
2022/09/14 06:36:08;;;;;;;18.05;9.30;;;;;;;20.95;51.11;100553.72;4916239;29;20059;-79
2022/09/14 06:38:34;;;;;;;26.13;8.20;;;;;;;21.09;50.44;100554.78;4927328;29;20027;-79
2022/09/14 06:41:03;;;;;;;32.92;8.63;;;;;;;21.21;49.81;100564.16;4935231;29;20078;-79
2022/09/14 06:43:30;;;;;;;19.73;7.85;;;;;;;21.32;49.32;100555.41;4934853;29;20085;-80
2022/09/14 06:46:00;;;;;;;28.30;9.15;;;;;;;21.40;48.52;100562.66;4935509;29;20028;-82
2022/09/14 06:48:35;;;;;;;20.48;6.82;;;;;;;21.55;48.34;100561.53;4935483;29;20033;-82
2022/09/14 06:51:19;;;;;;;30.00;8.77;;;;;;;21.71;48.33;100565.88;4935492;29;20062;-81
2022/09/14 06:53:46;;;;;;;26.45;10.23;;;;;;;21.80;48.37;100563.84;4935732;29;20028;-81
2022/09/14 06:56:13;;;;;;;21.38;8.35;;;;;;;21.90;48.38;100558.88;4918232;29;20048;-82
2022/09/14 06:58:39;;;;;;;17.73;6.78;;;;;;;21.93;48.85;100574.91;4935496;29;20398;-80
2022/09/14 07:01:06;;;;;;;21.73;9.13;;;;;;;21.95;48.79;100556.41;4934460;29;20051;-79
2022/09/14 07:03:34;;;;;;;17.25;6.50;;;;;;;22.10;48.02;100565.34;4934611;29;20118;-82
2022/09/14 07:06:05;;;;;;;18.33;6.10;;;;;;;22.08;48.07;100568.25;4935331;29;20034;-83
2022/09/14 07:08:35;;;;;;;15.52;5.75;;;;;;;22.14;47.65;100569.34;4934913;29;20453;-81
2022/09/14 07:11:00;;;;;;;15.73;5.68;;;;;;;22.08;47.01;100556.47;4935293;29;20026;-81
2022/09/14 07:13:28;;;;;;;10.95;4.82;;;;;;;22.21;46.93;100575.72;4935048;29;20027;-81
2022/09/14 07:15:54;;;;;;;14.05;4.47;;;;;;;22.12;47.48;100575.03;4908065;29;20030;-81
2022/09/14 07:18:21;;;;;;;15.07;4.28;;;;;;;22.12;47.68;100571.44;4912926;29;20382;-79
2022/09/14 07:20:47;;;;;;;11.13;5.22;;;;;;;22.22;47.40;100571.94;4934067;29;20478;-79
2022/09/14 07:23:13;;;;;;;18.88;5.55;;;;;;;22.26;46.73;100570.50;4934091;29;20028;-79
2022/09/14 07:25:38;;;;;;;18.30;5.25;;;;;;;22.28;46.68;100573.88;4934723;29;20023;-80
2022/09/14 07:28:03;;;;;;;27.02;4.78;;;;;;;22.35;46.84;100572.03;4933872;29;20030;-82
2022/09/14 07:30:29;;;;;;;10.93;5.55;;;;;;;22.33;46.81;100557.66;4935206;29;20382;-81
2022/09/14 07:32:54;;;;;;;12.13;4.70;;;;;;;22.28;46.08;100559.34;4934777;29;20041;-81
2022/09/14 07:35:20;;;;;;;16.85;4.13;;;;;;;22.38;46.06;100557.94;4928942;29;20044;-81
2022/09/14 07:37:45;;;;;;;12.40;4.15;;;;;;;22.37;46.09;100556.22;4899209;29;20040;-81
2022/09/14 07:40:11;;;;;;;8.85;4.18;;;;;;;22.59;45.73;100574.25;4916372;29;20104;-81
2022/09/14 07:42:37;;;;;;;31.00;5.32;;;;;;;22.64;45.61;100569.00;4915792;29;20024;-81
2022/09/14 07:45:04;;;;;;;18.15;3.95;;;;;;;22.73;45.53;100567.81;4916038;29;20537;-79
2022/09/14 07:47:30;;;;;;;9.48;4.43;;;;;;;22.75;45.60;100565.69;4916202;29;20039;-81
2022/09/14 07:49:55;;;;;;;12.07;4.15;;;;;;;22.93;44.87;100572.53;4915793;29;20028;-82
2022/09/14 07:52:21;;;;;;;17.50;4.60;;;;;;;22.94;44.64;100555.00;4915802;29;20394;-79
2022/09/14 07:54:46;;;;;;;28.77;4.78;;;;;;;23.04;44.61;100569.16;4915374;29;20520;-79
2022/09/14 07:57:12;;;;;;;18.05;3.90;;;;;;;23.08;44.18;100559.47;4915354;29;20406;-80
2022/09/14 07:59:37;;;;;;;16.77;3.85;;;;;;;23.15;44.08;100563.91;4915679;29;20036;-80
2022/09/14 08:02:07;;;;;;;10.13;3.60;;;;;;;23.29;43.80;100565.66;4912456;29;20024;-77
2022/09/14 08:04:38;;;;;;;8.55;3.10;;;;;;;23.32;43.65;100556.16;4914235;29;20043;-77
2022/09/14 08:07:04;;;;;;;14.32;4.20;;;;;;;23.42;43.42;100556.63;4897818;29;20028;-79
2022/09/14 08:09:30;;;;;;;8.10;3.90;;;;;;;23.52;43.23;100556.19;4915099;29;20024;-79
2022/09/14 08:11:56;;;;;;;11.50;3.60;;;;;;;23.48;43.14;100544.81;4897090;29;20028;-79
2022/09/14 08:14:21;;;;;;;14.45;4.15;;;;;;;23.60;42.98;100554.09;4914608;29;20037;-80
2022/09/14 08:16:47;;;;;;;8.77;4.20;;;;;;;23.67;42.56;100551.31;4908082;29;20028;-80
2022/09/14 08:19:15;;;;;;;10.50;3.88;;;;;;;23.69;42.09;100546.47;4914342;29;20032;-80
2022/09/14 08:21:42;;;;;;;13.80;3.92;;;;;;;23.89;41.49;100552.78;4917145;29;20103;-81
2022/09/14 08:24:11;;;;;;;21.52;3.60;;;;;;;23.76;41.60;100526.19;4925496;29;20064;-84
2022/09/14 08:26:37;;;;;;;14.85;4.28;;;;;;;23.85;41.19;100544.13;4902063;29;20107;-80
2022/09/14 08:29:03;;;;;;;14.25;4.13;;;;;;;23.99;41.30;100552.38;4918699;29;20111;-79
2022/09/14 08:31:29;;;;;;;29.20;5.43;;;;;;;24.10;40.96;100544.31;4907517;29;20027;-77
2022/09/14 08:33:59;;;;;;;25.05;5.00;;;;;;;24.27;40.74;100552.97;4917448;29;20431;-77
2022/09/14 08:36:27;;;;;;;25.92;4.10;;;;;;;24.34;40.44;100540.88;4932793;29;20433;-79
2022/09/14 08:38:53;;;;;;;13.07;4.20;;;;;;;24.50;40.05;100547.81;4933578;29;20032;-82
2022/09/14 08:41:31;;;;;;;14.18;3.63;;;;;;;24.58;39.85;100547.59;4938696;29;20066;-83
2022/09/14 08:44:19;;;;;;;8.95;3.53;;;;;;;24.66;39.10;100550.09;4938066;29;20031;-79
2022/09/14 08:46:58;;;;;;;19.02;3.10;;;;;;;24.77;38.65;100540.28;4931866;29;20148;-78
2022/09/14 08:49:36;;;;;;;13.20;3.90;;;;;;;24.84;38.65;100538.38;4926096;29;20032;-81
2022/09/14 08:52:02;;;;;;;12.15;3.33;;;;;;;24.92;38.72;100536.22;4918930;29;20071;-83
2022/09/14 08:54:28;;;;;;;9.40;4.10;;;;;;;25.05;38.54;100539.94;4920524;29;20043;-81
2022/09/14 08:57:08;;;;;;;12.75;3.47;;;;;;;25.07;38.44;100513.91;4936327;29;20035;-83
2022/09/14 09:00:12;;;;;;;13.73;3.60;;;;;;;25.22;37.83;100532.88;4936629;29;20123;-81
2022/09/14 09:02:49;;;;;;;7.57;3.30;;;;;;;25.26;37.75;100534.94;4894993;29;20047;-79
2022/09/14 09:05:33;;;;;;;6.53;3.25;;;;;;;25.24;37.43;100536.22;4920323;29;20075;-81
2022/09/14 09:08:14;;;;;;;14.20;3.75;;;;;;;25.35;37.32;100528.09;4938048;29;20028;-82
2022/09/14 09:10:39;;;;;;;12.30;4.28;;;;;;;25.42;36.69;100528.91;4938798;29;20075;-83
2022/09/14 09:13:11;;;;;;;8.10;2.50;;;;;;;25.48;36.11;100520.78;4937958;29;20053;-81
2022/09/14 09:15:44;;;;;;;9.40;5.32;;;;;;;25.55;36.40;100518.88;4938021;29;20032;-84
2022/09/14 09:18:17;;;;;;;3.95;2.20;;;;;;;25.53;35.56;100508.09;4938067;29;20115;-85
2022/09/14 09:20:49;;;;;;;9.32;2.38;;;;;;;25.61;35.31;100521.56;4937772;29;20023;-86
2022/09/14 09:23:21;;;;;;;6.75;2.67;;;;;;;25.51;34.58;100510.22;4937991;29;20074;-86
2022/09/14 09:26:25;;;;;;;9.43;2.67;;;;;;;25.73;34.11;100528.03;4921563;29;20141;-86
2022/09/14 09:28:53;;;;;;;5.35;2.42;;;;;;;25.74;33.92;100518.72;4937259;29;20485;-86
2022/09/14 09:31:28;;;;;;;6.78;2.30;;;;;;;25.78;33.97;100506.16;4937103;29;20024;-86
2022/09/14 09:33:54;;;;;;;13.93;2.80;;;;;;;25.81;32.86;100493.81;4920163;29;20027;-86
2022/09/14 09:36:19;;;;;;;6.35;2.58;;;;;;;25.81;33.42;100488.31;4937657;29;20634;-86
2022/09/14 09:38:45;;;;;;;8.07;2.80;;;;;;;25.86;32.84;100475.56;4937321;29;20031;-86
2022/09/14 09:41:17;;;;;;;7.07;2.00;;;;;;;26.10;31.09;100504.13;4920511;29;20032;-86
2022/09/14 09:44:08;;;;;;;5.70;1.67;;;;;;;26.18;31.70;100505.75;4937785;29;20023;-86
2022/09/14 09:46:36;;;;;;;6.07;2.35;;;;;;;26.13;32.32;100481.63;4938306;29;20600;-85
2022/09/14 09:49:23;;;;;;;11.60;2.17;;;;;;;26.32;31.97;100486.09;4938232;29;20032;-85
2022/09/14 09:51:49;;;;;;;8.80;2.30;;;;;;;26.46;31.37;100486.75;4927719;29;20497;-86
2022/09/14 09:54:15;;;;;;;9.50;2.15;;;;;;;26.49;31.30;100497.31;4937389;29;20036;-85
2022/09/14 09:56:53;;;;;;;11.35;1.90;;;;;;;26.46;31.08;100481.25;4937185;29;20057;-86
2022/09/14 09:59:26;;;;;;;5.65;2.63;;;;;;;26.55;31.19;100495.56;4936821;29;20076;-85
2022/09/14 10:01:55;;;;;;;4.65;2.20;;;;;;;26.63;31.58;100504.38;4937043;29;20401;-85
2022/09/14 10:04:26;;;;;;;6.13;2.63;;;;;;;26.65;31.70;100474.63;4937393;29;20564;-85
2022/09/14 10:06:53;;;;;;;2.67;1.87;;;;;;;26.69;30.58;100470.34;4937621;29;20027;-85
2022/09/14 10:09:25;;;;;;;11.98;2.50;;;;;;;26.88;31.06;100479.44;4920869;29;20109;-86
2022/09/14 10:12:00;;;;;;;4.80;2.08;;;;;;;27.10;30.74;100499.03;4938926;29;20542;-84
2022/09/14 10:14:32;;;;;;;3.67;2.42;;;;;;;27.16;30.96;100492.56;4921395;29;20039;-85
2022/09/14 10:17:14;;;;;;;15.02;2.45;;;;;;;27.25;29.99;100480.97;4938436;29;20059;-85
2022/09/14 10:19:46;;;;;;;8.90;1.65;;;;;;;27.32;29.00;100483.63;4919936;29;20471;-83
2022/09/14 10:22:29;;;;;;;7.93;2.27;;;;;;;27.39;29.41;100487.13;4920061;29;20024;-84
2022/09/14 10:25:19;;;;;;;5.53;2.83;;;;;;;27.50;29.66;100494.59;4936950;29;20406;-82
2022/09/14 10:27:47;;;;;;;7.40;2.40;;;;;;;27.52;29.19;100487.75;4936985;29;20024;-84
2022/09/14 10:30:16;;;;;;;11.00;2.20;;;;;;;27.61;29.10;100485.50;4936564;29;20028;-84
2022/09/14 10:32:48;;;;;;;6.10;1.80;;;;;;;27.58;28.95;100485.13;4936413;29;20027;-84
2022/09/14 10:35:16;;;;;;;4.82;1.85;;;;;;;27.68;28.63;100500.03;4936863;29;20063;-85
2022/09/14 10:38:07;;;;;;;3.92;1.60;;;;;;;27.76;27.51;100473.97;4937167;29;20474;-84
2022/09/14 10:40:42;;;;;;;13.35;2.08;;;;;;;27.68;27.41;100441.13;4936488;29;20398;-84
2022/09/14 10:43:20;;;;;;;30.00;21.65;;;;;;;27.80;27.59;100462.16;4918919;29;20075;-85
2022/09/14 10:45:51;;;;;;;5.45;2.95;;;;;;;28.05;27.53;100489.59;4936368;29;20020;-85
2022/09/14 10:48:47;;;;;;;2.53;1.52;;;;;;;28.08;27.28;100476.13;4936817;29;20036;-84
2022/09/14 10:51:32;;;;;;;5.45;1.75;;;;;;;28.14;27.04;100473.44;4918961;29;20027;-84
2022/09/14 10:54:05;;;;;;;6.20;1.73;;;;;;;28.15;27.30;100464.94;4937354;29;20050;-85
2022/09/14 10:56:57;;;;;;;5.18;1.67;;;;;;;28.31;27.08;100469.72;4935795;29;20032;-85
2022/09/14 10:59:22;;;;;;;9.93;2.75;;;;;;;28.38;27.25;100461.25;4936016;29;20465;-86
2022/09/14 11:02:17;;;;;;;5.30;1.67;;;;;;;28.34;26.19;100418.59;4936021;29;20062;-85
2022/09/14 11:04:56;;;;;;;10.45;2.10;;;;;;;28.66;26.10;100455.78;4906618;29;20050;-85
2022/09/14 11:07:40;;;;;;;4.72;1.83;;;;;;;28.72;26.11;100460.31;4936466;29;20107;-86
2022/09/14 11:10:22;;;;;;;8.93;2.38;;;;;;;28.73;25.67;100453.69;4935754;29;20035;-85
2022/09/14 11:13:10;;;;;;;9.38;2.53;;;;;;;28.66;25.44;100449.38;4936120;29;20528;-84
2022/09/14 11:15:41;;;;;;;4.13;2.00;;;;;;;28.60;26.07;100435.44;4936339;29;20035;-84
2022/09/14 11:18:21;;;;;;;18.85;2.95;;;;;;;28.86;26.14;100447.88;4936327;29;20409;-86
2022/09/14 11:21:09;;;;;;;10.55;2.05;;;;;;;29.08;25.86;100448.81;4918898;29;20481;-86
2022/09/14 11:23:47;;;;;;;3.95;1.33;;;;;;;29.13;25.70;100446.13;4919444;29;20035;-86
2022/09/14 11:26:30;;;;;;;2.63;1.55;;;;;;;29.14;25.65;100447.81;4936676;29;20495;-85
2022/09/14 11:29:22;;;;;;;8.13;1.58;;;;;;;29.26;25.43;100456.09;4936048;29;20032;-85
2022/09/14 11:32:03;;;;;;;10.20;1.77;;;;;;;29.25;25.52;100432.25;4936148;29;20082;-86
2022/09/14 11:35:21;;;;;;;4.70;2.53;;;;;;;29.15;34.74;100452.25;4919161;29;20577;-85
2022/09/14 11:37:54;;;;;;;4.10;2.00;;;;;;;28.98;36.39;100468.03;4895198;29;20138;-85
2022/09/14 11:40:27;;;;;;;10.25;2.40;;;;;;;28.06;37.84;100452.56;4917150;29;20028;-85
2022/09/14 11:43:18;;;;;;;8.82;2.38;;;;;;;28.01;37.84;100447.72;4916941;29;20064;-84
2022/09/14 11:46:06;;;;;;;5.45;1.63;;;;;;;27.97;37.02;100445.69;4917196;29;20028;-85
2022/09/14 11:48:42;;;;;;;11.70;2.60;;;;;;;27.81;39.73;100441.75;4916602;29;20032;-84
2022/09/14 11:51:10;;;;;;;14.02;3.22;;;;;;;27.78;39.62;100449.69;4916799;29;20029;-84
2022/09/14 11:53:37;;;;;;;4.97;2.83;;;;;;;27.66;39.66;100449.69;4916925;29;20550;-85
2022/09/14 11:56:02;;;;;;;13.98;3.22;;;;;;;27.60;40.47;100427.69;4918348;29;20442;-85
2022/09/14 11:58:28;;;;;;;6.53;3.17;;;;;;;27.40;40.86;100450.13;4920816;29;20024;-84
2022/09/14 12:01:04;;;;;;;8.35;2.58;;;;;;;27.51;41.31;100435.50;4920074;29;20024;-85
2022/09/14 12:03:45;;;;;;;8.32;2.40;;;;;;;27.37;41.71;100434.00;4920553;29;20473;-85